Date,TemperatureHighF,TemperatureAvgF,TemperatureLowF,DewpointHighF,DewpointAvgF,DewpointLowF,HumidityHigh,HumidityAvg,HumidityLow,PressureMaxIn,PressureMinIn,WindSpeedMaxMPH,WindSpeedAvgMPH,GustSpeedMaxMPH,PrecipitationSumIn
2013-1-1,10,4,1,-100,-100,-100,0,0,100,0.00,40.00,0,-999,0,0.00
2013-1-2,12,6,2,-100,-100,-100,0,0,100,0.00,40.00,0,-999,0,0.00
2013-1-3,17,10,2,-100,-100,-100,0,0,100,0.00,40.00,0,-999,0,0.00
2013-1-4,34,22,10,-100,-100,-100,0,0,100,0.00,40.00,0,-999,0,0.00
2013-1-5,29,21,13,-100,-100,-100,0,0,100,0.00,40.00,0,-999,0,0.00
2013-1-6,36,20,4,-100,-100,-100,0,0,100,0.00,40.00,0,-999,0,0.00
2013-1-7,36,26,16,-100,-100,-100,0,0,100,0.00,40.00,0,-999,0,0.00
2013-1-8,30,24,18,-100,-100,-100,0,0,100,0.00,40.00,0,-999,0,0.00
2013-1-9,40,25,14,-100,-100,-100,0,0,100,0.00,40.00,0,-999,0,0.00
2013-1-10,34,20,10,-100,-100,-100,0,0,100,0.00,40.00,0,-999,0,0.00
2013-1-11,16,10,-2,-100,-100,-100,0,0,100,0.00,40.00,0,-999,0,0.01
2013-1-12,6,-3,-11,-100,-100,-100,0,0,100,0.00,40.00,0,-999,0,0.01
2013-1-13,3,-6,-14,-100,-100,-100,0,0,100,0.00,40.00,0,-999,0,0.01
2013-1-14,4,-9,-20,-100,-100,-100,0,0,100,0.00,40.00,0,-999,0,0.01
2013-1-15,11,1,-11,-100,-100,-100,0,0,100,0.00,40.00,0,-999,0,0.00
2013-1-16,29,20,9,-100,-100,-100,0,0,100,0.00,40.00,0,-999,0,0.00
2013-1-17,39,26,15,-100,-100,-100,0,0,100,0.00,40.00,0,-999,0,0.00
2013-1-18,33,27,23,-100,-100,-100,0,0,100,0.00,40.00,0,-999,0,0.00
2013-1-19,36,27,22,-100,-100,-100,0,0,100,0.00,40.00,0,-999,0,0.00
2013-1-20,33,28,24,-100,-100,-100,0,0,100,0.00,40.00,0,-999,0,0.00
2013-1-21,32,26,22,-100,-100,-100,0,0,100,0.00,40.00,0,-999,0,0.00
2013-1-22,39,32,27,-100,-100,-100,0,0,100,0.00,40.00,0,-999,0,0.00
2013-1-23,47,32,20,-100,-100,-100,0,0,100,0.00,40.00,0,-999,0,0.00
2013-1-24,39,34,30,-100,-100,-100,0,0,100,0.00,40.00,0,-999,0,0.00
2013-1-25,36,31,27,-100,-100,-100,0,0,100,0.00,40.00,0,-999,0,0.00
2013-1-26,39,31,27,-100,-100,-100,0,0,100,0.00,40.00,0,-999,0,0.01
2013-1-27,38,28,15,-100,-100,-100,0,0,100,0.00,40.00,0,-999,0,0.01
2013-1-28,30,20,8,-100,-100,-100,0,0,100,0.00,40.00,0,-999,0,0.00
2013-1-29,11,5,1,-100,-100,-100,0,0,100,0.00,40.00,0,-999,0,0.00
2013-1-30,15,9,1,-100,-100,-100,0,0,100,0.00,40.00,0,-999,0,0.01
2013-1-31,23,20,16,-100,-100,-100,0,0,100,0.00,40.00,0,-999,0,0.01
2013-2-1,24,20,17,-100,-100,-100,0,0,100,0.00,40.00,0,-999,0,0.00
2013-2-2,35,25,17,-100,-100,-100,0,0,100,0.00,40.00,0,-999,0,0.00
2013-2-3,37,29,19,-100,-100,-100,0,0,100,0.00,40.00,0,-999,0,0.00
2013-2-4,32,25,20,-100,-100,-100,0,0,100,0.00,40.00,0,-999,0,0.00
2013-2-5,41,28,17,-100,-100,-100,0,0,100,0.00,40.00,0,-999,0,0.00
2013-2-6,37,27,18,-100,-100,-100,0,0,100,0.00,40.00,0,-999,0,0.00
2013-2-7,33,16,6,-100,-100,-100,0,0,100,0.00,40.00,0,-999,0,0.00
2013-2-8,35,19,2,-100,-100,-100,0,0,100,0.00,40.00,0,-999,0,0.00
2013-2-9,24,18,10,-100,-100,-100,0,0,100,0.00,40.00,0,-999,0,0.01
2013-2-10,18,10,2,-100,-100,-100,0,0,100,0.00,40.00,0,-999,0,0.01
2013-2-11,17,8,3,-100,-100,-100,0,0,100,0.00,40.00,0,-999,0,0.01
2013-2-12,19,8,1,-100,-100,-100,0,0,100,0.00,40.00,0,-999,0,0.00
2013-2-13,23,16,10,-100,-100,-100,0,0,100,0.00,40.00,0,-999,0,0.00
2013-2-14,21,17,12,-100,-100,-100,0,0,100,0.00,40.00,0,-999,0,0.00
2013-2-15,15,13,11,-100,-100,-100,0,0,100,0.00,40.00,0,-999,0,0.02
2013-2-16,31,22,15,-100,-100,-100,0,0,100,0.00,40.00,0,-999,0,0.01
2013-2-17,40,28,19,-100,-100,-100,0,0,100,0.00,40.00,0,-999,0,0.00
2013-2-18,18,12,6,-100,-100,-100,0,0,100,0.00,40.00,0,-999,0,0.00
2013-2-19,33,18,-2,-100,-100,-100,0,0,100,0.00,40.00,0,-999,0,0.00
2013-2-20,31,20,9,-100,-100,-100,0,0,100,0.00,40.00,0,-999,0,0.00
2013-2-21,22,17,12,-100,-100,-100,0,0,100,0.00,40.00,0,-999,0,0.01
2013-2-22,22,12,7,-100,-100,-100,0,0,100,0.00,40.00,0,-999,0,0.01
2013-2-23,31,18,6,-100,-100,-100,0,0,100,0.00,40.00,0,-999,0,0.00
2013-2-24,18,12,7,-100,-100,-100,0,0,100,0.00,40.00,0,-999,0,0.02
2013-2-25,24,20,15,-100,-100,-100,0,0,100,0.00,40.00,0,-999,0,0.00
2013-2-26,18,12,7,-100,-100,-100,0,0,100,0.00,40.00,0,-999,0,0.00
2013-2-27,20,10,5,-100,-100,-100,0,0,100,0.00,40.00,0,-999,0,0.01
2013-2-28,22,12,4,-100,-100,-100,0,0,100,0.00,40.00,0,-999,0,0.00
2013-3-1,26,20,15,-100,-100,-100,0,0,100,0.00,40.00,0,-999,0,0.01
2013-3-2,37,29,23,-100,-100,-100,0,0,100,0.00,40.00,0,-999,0,0.01
2013-3-3,39,33,27,-100,-100,-100,0,0,100,0.00,40.00,0,-999,0,0.00
2013-3-4,30,20,6,-100,-100,-100,0,0,100,0.00,40.00,0,-999,0,0.02
2013-3-5,38,22,4,-100,-100,-100,0,0,100,0.00,40.00,0,-999,0,0.01
2013-3-6,45,27,12,-100,-100,-100,0,0,100,0.00,40.00,0,-999,0,0.00
2013-3-7,46,31,20,-100,-100,-100,0,0,100,0.00,40.00,0,-999,0,0.00
2013-3-8,43,29,18,-100,-100,-100,0,0,100,0.00,40.00,0,-999,0,0.01
2013-3-9,29,22,11,-100,-100,-100,0,0,100,0.00,40.00,0,-999,0,0.01
2013-3-10,24,16,9,-100,-100,-100,0,0,100,0.00,40.00,0,-999,0,0.01
2013-3-11,30,23,20,-100,-100,-100,0,0,100,0.00,40.00,0,-999,0,0.01
2013-3-12,34,27,22,-100,-100,-100,0,0,100,0.00,40.00,0,-999,0,0.01
2013-3-13,41,33,27,-100,-100,-100,0,0,100,0.00,40.00,0,-999,0,0.00
2013-3-14,46,38,32,-100,-100,-100,0,0,100,0.00,40.00,0,-999,0,0.00
2013-3-15,49,40,31,-100,-100,-100,0,0,100,0.00,40.00,0,-999,0,0.00
2013-3-16,38,32,28,-100,-100,-100,0,0,100,0.00,40.00,0,-999,0,0.00
2013-3-17,34,25,19,-100,-100,-100,0,0,100,0.00,40.00,0,-999,0,0.01
2013-3-18,25,19,13,-100,-100,-100,0,0,100,0.00,40.00,0,-999,0,0.01
2013-3-19,31,23,9,-100,-100,-100,0,0,100,0.00,40.00,0,-999,0,0.01
2013-3-20,40,28,12,-100,-100,-100,0,0,100,0.00,40.00,0,-999,0,0.00
2013-3-21,34,25,17,-100,-100,-100,0,0,100,0.00,40.00,0,-999,0,0.01
2013-3-22,32,22,9,-100,-100,-100,0,0,100,0.00,40.00,0,-999,0,0.01
2013-3-23,16,10,3,-100,-100,-100,0,0,100,0.00,40.00,0,-999,0,0.01
2013-3-24,9,4,-3,-100,-100,-100,0,0,100,0.00,40.00,0,-999,0,0.01
2013-3-25,23,9,1,-100,-100,-100,0,0,100,0.00,40.00,0,-999,0,0.01
2013-3-26,38,27,6,-100,-100,-100,0,0,100,0.00,40.00,0,-999,0,0.00
2013-3-27,43,30,22,-100,-100,-100,0,0,100,0.00,40.00,0,-999,0,0.01
2013-3-28,42,31,19,-100,-100,-100,0,0,100,0.00,40.00,0,-999,0,0.00
2013-3-29,44,33,23,-100,-100,-100,0,0,100,0.00,40.00,0,-999,0,0.00
2013-3-30,43,34,28,-100,-100,-100,0,0,100,0.00,40.00,0,-999,0,0.00
2013-3-31,46,31,18,-100,-100,-100,0,0,100,0.00,40.00,0,-999,0,0.00
2013-4-1,44,33,18,-100,-100,-100,0,0,100,0.00,40.00,0,-999,0,0.00
2013-4-2,35,30,25,-100,-100,-100,0,0,100,0.00,40.00,0,-999,0,0.01
2013-4-3,39,29,17,-100,-100,-100,0,0,100,0.00,40.00,0,-999,0,0.01
2013-4-4,48,34,25,-100,-100,-100,0,0,100,0.00,40.00,0,-999,0,0.00
2013-4-5,50,38,30,-100,-100,-100,0,0,100,0.00,40.00,0,-999,0,0.00
2013-4-6,45,33,25,-100,-100,-100,0,0,100,0.00,40.00,0,-999,0,0.01
2013-4-7,42,32,27,-100,-100,-100,0,0,100,0.00,40.00,0,-999,0,0.00
2013-4-8,45,34,20,-100,-100,-100,0,0,100,0.00,40.00,0,-999,0,0.00
2013-4-9,29,18,6,-100,-100,-100,0,0,100,0.00,40.00,0,-999,0,0.01
2013-4-10,28,15,3,-100,-100,-100,0,0,100,0.00,40.00,0,-999,0,0.01
2013-4-11,34,26,16,-100,-100,-100,0,0,100,0.00,40.00,0,-999,0,0.01
2013-4-12,36,27,18,-100,-100,-100,0,0,100,0.00,40.00,0,-999,0,0.01
2013-4-13,44,31,16,-100,-100,-100,0,0,100,0.00,40.00,0,-999,0,0.00
2013-4-14,30,23,19,-100,-100,-100,0,0,100,0.00,40.00,0,-999,0,0.03
2013-4-15,31,24,18,-100,-100,-100,0,0,100,0.00,40.00,0,-999,0,0.02
2013-4-16,40,26,18,-100,-100,-100,0,0,100,0.00,40.00,0,-999,0,0.01
2013-4-17,26,20,6,-100,-100,-100,0,0,100,0.00,40.00,0,-999,0,0.02
2013-4-18,15,9,3,-100,-100,-100,0,0,100,0.00,40.00,0,-999,0,0.01
2013-4-19,32,22,11,-100,-100,-100,0,0,100,0.00,40.00,0,-999,0,0.02
2013-4-20,37,28,19,-100,-100,-100,0,0,100,0.00,40.00,0,-999,0,0.01
2013-4-21,41,31,24,-100,-100,-100,0,0,100,0.00,40.00,0,-999,0,0.01
2013-4-22,38,30,19,-100,-100,-100,0,0,100,0.00,40.00,0,-999,0,0.02
2013-4-23,24,18,12,-100,-100,-100,0,0,100,0.00,40.00,0,-999,0,0.03
2013-4-24,33,25,12,-100,-100,-100,0,0,100,0.00,40.00,0,-999,0,0.00
2013-4-25,50,31,8,-100,-100,-100,0,0,100,0.00,40.00,0,-999,0,0.00
2013-4-26,49,36,22,-100,-100,-100,0,0,100,0.00,40.00,0,-999,0,0.00
2013-4-27,49,37,22,-100,-100,-100,0,0,100,0.00,40.00,0,-999,0,0.00
2013-4-28,55,43,35,-100,-100,-100,0,0,100,0.00,40.00,0,-999,0,0.00
2013-4-29,56,46,34,-100,-100,-100,0,0,100,0.00,40.00,0,-999,0,0.00
2013-4-30,52,46,37,-100,-100,-100,0,0,100,0.00,40.00,0,-999,0,0.00
2013-5-1,35,23,15,-100,-100,-100,0,0,100,0.00,40.00,0,-999,0,0.04
2013-5-2,28,21,9,-100,-100,-100,0,0,100,0.00,40.00,0,-999,0,0.02
2013-5-3,45,34,22,-100,-100,-100,0,0,100,0.00,40.00,0,-999,0,0.01
2013-5-4,48,31,18,-100,-100,-100,0,0,100,0.00,40.00,0,-999,0,0.01
2013-5-5,44,33,23,-100,-100,-100,0,0,100,0.00,40.00,0,-999,0,0.01
2013-5-6,49,35,25,-100,-100,-100,0,0,100,0.00,40.00,0,-999,0,0.03
2013-5-7,47,36,31,-100,-100,-100,0,0,100,0.00,40.00,0,-999,0,0.03
2013-5-8,38,33,28,-100,-100,-100,0,0,100,0.00,40.00,0,-999,0,0.02
2013-5-9,40,32,25,-100,-100,-100,0,0,100,0.00,40.00,0,-999,0,0.03
2013-5-10,42,32,21,-100,-100,-100,0,0,100,0.00,40.00,0,-999,0,0.01
2013-5-11,51,35,23,-100,-100,-100,0,0,100,0.00,40.00,0,-999,0,0.00
2013-5-12,56,44,33,-100,-100,-100,0,0,100,0.00,40.00,0,-999,0,0.00
2013-5-13,61,47,36,-100,-100,-100,0,0,100,0.00,40.00,0,-999,0,0.00
2013-5-14,62,46,36,-100,-100,-100,0,0,100,0.00,40.00,0,-999,0,0.00
2013-5-15,53,44,36,-100,-100,-100,0,0,100,0.00,40.00,0,-999,0,0.00
2013-5-16,57,44,32,-100,-100,-100,0,0,100,0.00,40.00,0,-999,0,0.00
2013-5-17,61,47,34,-100,-100,-100,0,0,100,0.00,40.00,0,-999,0,0.00
2013-5-18,51,40,34,-100,-100,-100,0,0,100,0.00,40.00,0,-999,0,0.00
2013-5-19,41,35,31,-100,-100,-100,0,0,100,0.00,40.00,0,-999,0,0.00
2013-5-20,40,35,32,-100,-100,-100,0,0,100,0.00,40.00,0,-999,0,0.00
2013-5-21,46,38,30,-100,-100,-100,0,0,100,0.00,40.00,0,-999,0,0.00
2013-5-22,57,42,30,-100,-100,-100,0,0,100,0.00,40.00,0,-999,0,0.00
2013-5-23,58,43,32,-100,-100,-100,0,0,100,0.00,40.00,0,-999,0,0.00
2013-5-24,62,46,31,-100,-100,-100,0,0,100,0.00,40.00,0,-999,0,0.00
2013-5-25,61,47,32,-100,-100,-100,0,0,100,0.00,40.00,0,-999,0,0.00
2013-5-26,63,49,38,-100,-100,-100,0,0,100,0.00,40.00,0,-999,0,0.00
2013-5-27,58,47,36,-100,-100,-100,0,0,100,0.00,40.00,0,-999,0,0.00
2013-5-28,54,45,31,-100,-100,-100,0,0,100,0.00,40.00,0,-999,0,0.00
2013-5-29,43,37,31,-100,-100,-100,0,0,100,0.00,40.00,0,-999,0,0.00
2013-5-30,40,34,31,-100,-100,-100,0,0,100,0.00,40.00,0,-999,0,0.02
2013-5-31,45,38,30,-100,-100,-100,0,0,100,0.00,40.00,0,-999,0,0.01
2013-6-1,53,41,31,-100,-100,-100,0,0,100,0.00,40.00,0,-999,0,0.00
2013-6-2,62,47,28,-100,-100,-100,0,0,100,0.00,40.00,0,-999,0,0.00
2013-6-3,61,51,38,-100,-100,-100,0,0,100,0.00,40.00,0,-999,0,0.00
2013-6-4,62,47,35,-100,-100,-100,0,0,100,0.00,40.00,0,-999,0,0.00
2013-6-5,60,47,35,-100,-100,-100,0,0,100,0.00,40.00,0,-999,0,0.00
2013-6-6,59,46,32,-100,-100,-100,0,0,100,0.00,40.00,0,-999,0,0.00
2013-6-7,58,46,33,-100,-100,-100,0,0,100,0.00,40.00,0,-999,0,0.00
2013-6-8,59,52,43,-100,-100,-100,0,0,100,0.00,40.00,0,-999,0,0.00
2013-6-9,67,54,44,-100,-100,-100,0,0,100,0.00,40.00,0,-999,0,0.00
2013-6-10,72,57,40,-100,-100,-100,0,0,100,0.00,40.00,0,-999,0,0.00
2013-6-11,71,57,42,-100,-100,-100,0,0,100,0.00,40.00,0,-999,0,0.00
2013-6-12,71,57,40,-100,-100,-100,0,0,100,0.00,40.00,0,-999,0,0.00
2013-6-13,69,55,40,-100,-100,-100,0,0,100,0.00,40.00,0,-999,0,0.00
2013-6-14,69,57,39,-100,-100,-100,0,0,100,0.00,40.00,0,-999,0,0.00
2013-6-15,65,52,34,-100,-100,-100,0,0,100,0.00,40.00,0,-999,0,0.00
2013-6-16,60,49,39,-100,-100,-100,0,0,100,0.00,40.00,0,-999,0,0.00
2013-6-17,58,48,36,-100,-100,-100,0,0,100,0.00,40.00,0,-999,0,0.01
2013-6-18,66,51,38,-100,-100,-100,0,0,100,0.00,40.00,0,-999,0,0.01
2013-6-19,70,53,33,-100,-100,-100,0,0,100,0.00,40.00,0,-999,0,0.00
2013-6-20,68,51,40,-100,-100,-100,0,0,100,0.00,40.00,0,-999,0,0.00
2013-6-22,66,59,49,-100,-100,-100,0,0,100,0.00,40.00,0,-999,0,0.00
2013-6-23,66,53,34,-100,-100,-100,0,0,100,0.00,40.00,0,-999,0,0.00
2013-6-24,67,54,37,-100,-100,-100,0,0,100,0.00,40.00,0,-999,0,0.00
2013-6-25,64,54,44,-100,-100,-100,0,0,100,0.00,40.00,0,-999,0,0.00
2013-6-26,74,57,38,-100,-100,-100,0,0,100,0.00,40.00,0,-999,0,0.00
2013-6-27,75,61,49,-100,-100,-100,0,0,100,0.00,40.00,0,-999,0,0.00
2013-6-28,77,61,45,-100,-100,-100,0,0,100,0.00,40.00,0,-999,0,0.00
2013-6-29,67,54,43,-100,-100,-100,0,0,100,0.00,40.00,0,-999,0,0.00
2013-6-30,68,52,41,-100,-100,-100,0,0,100,0.00,40.00,0,-999,0,0.00
2013-7-1,66,49,38,-100,-100,-100,0,0,100,0.00,40.00,0,-999,0,0.00
2013-7-2,65,51,38,-100,-100,-100,0,0,100,0.00,40.00,0,-999,0,0.00
2013-7-3,68,53,38,-100,-100,-100,0,0,100,0.00,40.00,0,-999,0,0.00
2013-7-4,67,55,46,-100,-100,-100,0,0,100,0.00,40.00,0,-999,0,0.00
2013-7-5,63,55,43,-100,-100,-100,0,0,100,0.00,40.00,0,-999,0,0.00
2013-7-6,68,55,46,-100,-100,-100,0,0,100,0.00,40.00,0,-999,0,0.00
2013-7-7,69,55,44,-100,-100,-100,0,0,100,0.00,40.00,0,-999,0,0.01
2013-7-8,64,51,41,-100,-100,-100,0,0,100,0.00,40.00,0,-999,0,0.02
2013-7-9,71,55,45,-100,-100,-100,0,0,100,0.00,40.00,0,-999,0,0.00
2013-7-10,67,54,43,-100,-100,-100,0,0,100,0.00,40.00,0,-999,0,0.00
2013-7-11,72,55,41,-100,-100,-100,0,0,100,0.00,40.00,0,-999,0,0.00
2013-7-12,64,53,48,-100,-100,-100,0,0,100,0.00,40.00,0,-999,0,0.01
2013-7-13,63,52,46,-100,-100,-100,0,0,100,0.00,40.00,0,-999,0,0.02
2013-7-14,63,52,43,-100,-100,-100,0,0,100,0.00,40.00,0,-999,0,0.02
2013-7-15,63,50,45,-100,-100,-100,0,0,100,0.00,40.00,0,-999,0,0.01
2013-7-16,66,52,37,-100,-100,-100,0,0,100,0.00,40.00,0,-999,0,0.01
2013-7-17,69,52,39,-100,-100,-100,0,0,100,0.00,40.00,0,-999,0,0.00
2013-7-18,65,56,44,-100,-100,-100,0,0,100,0.00,40.00,0,-999,0,0.00
2013-7-19,64,54,48,-100,-100,-100,0,0,100,0.00,40.00,0,-999,0,0.01
2013-7-20,71,54,42,-100,-100,-100,0,0,100,0.00,40.00,0,-999,0,0.01
2013-7-21,69,56,40,-100,-100,-100,0,0,100,0.00,40.00,0,-999,0,0.00
2013-7-22,72,58,45,-100,-100,-100,0,0,100,0.00,40.00,0,-999,0,0.00
2013-7-23,72,57,44,-100,-100,-100,0,0,100,0.00,40.00,0,-999,0,0.00
2013-7-24,66,52,43,-100,-100,-100,0,0,100,0.00,40.00,0,-999,0,0.01
2013-7-25,63,50,41,-100,-100,-100,0,0,100,0.00,40.00,0,-999,0,0.01
2013-7-26,67,53,39,-100,-100,-100,0,0,100,0.00,40.00,0,-999,0,1.18
2013-7-27,67,51,40,-100,-100,-100,0,0,100,0.00,40.00,0,-999,0,0.01
2013-7-28,53,49,45,-100,-100,-100,0,0,100,0.00,40.00,0,-999,0,0.02
2013-7-29,60,50,44,-100,-100,-100,0,0,100,0.00,40.00,0,-999,0,0.01
2013-7-30,63,52,40,-100,-100,-100,0,0,100,0.00,40.00,0,-999,0,0.00
2013-7-31,69,55,40,-100,-100,-100,0,0,100,0.00,40.00,0,-999,0,1.17
2013-8-1,59,50,41,-100,-100,-100,0,0,100,0.00,40.00,0,-999,0,1.17
2013-8-2,68,57,47,-100,-100,-100,0,0,100,0.00,40.00,0,-999,0,0.00
2013-8-3,66,52,43,-100,-100,-100,0,0,100,0.00,40.00,0,-999,0,0.00
2013-8-4,67,54,42,-100,-100,-100,0,0,100,0.00,40.00,0,-999,0,0.01
2013-8-5,66,50,42,-100,-100,-100,0,0,100,0.00,40.00,0,-999,0,0.02
2013-8-6,64,52,44,-100,-100,-100,0,0,100,0.00,40.00,0,-999,0,0.01
2013-8-7,53,45,41,-100,-100,-100,0,0,100,0.00,40.00,0,-999,0,0.02
2013-8-8,55,44,40,-100,-100,-100,0,0,100,0.00,40.00,0,-999,0,0.01
2013-8-9,56,44,38,-100,-100,-100,0,0,100,0.00,40.00,0,-999,0,0.01
2013-8-10,64,50,35,-100,-100,-100,0,0,100,0.00,40.00,0,-999,0,0.01
2013-8-11,64,49,41,-100,-100,-100,0,0,100,0.00,40.00,0,-999,0,0.00
2013-8-12,61,50,38,-100,-100,-100,0,0,100,0.00,40.00,0,-999,0,0.00
2013-8-13,59,47,36,-100,-100,-100,0,0,100,0.00,40.00,0,-999,0,0.00
2013-8-14,62,48,38,-100,-100,-100,0,0,100,0.00,40.00,0,-999,0,0.00
2013-8-15,64,51,38,-100,-100,-100,0,0,100,0.00,40.00,0,-999,0,0.00
2013-8-16,68,56,38,-100,-100,-100,0,0,100,0.00,40.00,0,-999,0,0.00
2013-8-17,70,57,42,-100,-100,-100,0,0,100,0.00,40.00,0,-999,0,0.00
2013-8-18,69,55,44,-100,-100,-100,0,0,100,0.00,40.00,0,-999,0,0.00
2013-8-19,66,54,42,-100,-100,-100,0,0,100,0.00,40.00,0,-999,0,0.01
2013-8-20,70,56,42,-100,-100,-100,0,0,100,0.00,40.00,0,-999,0,0.00
2013-8-21,67,54,45,-100,-100,-100,0,0,100,0.00,40.00,0,-999,0,0.00
2013-8-22,58,51,44,-100,-100,-100,0,0,100,0.00,40.00,0,-999,0,0.03
2013-8-23,60,51,43,-100,-100,-100,0,0,100,0.00,40.00,0,-999,0,0.04
2013-8-24,59,51,41,-100,-100,-100,0,0,100,0.00,40.00,0,-999,0,0.01
2013-8-25,62,52,43,-100,-100,-100,0,0,100,0.00,40.00,0,-999,0,0.00
2013-8-26,66,51,43,-100,-100,-100,0,0,100,0.00,40.00,0,-999,0,0.01
2013-8-27,67,54,44,-100,-100,-100,0,0,100,0.00,40.00,0,-999,0,0.01
2013-8-28,70,65,52,-100,-100,-100,0,0,100,0.00,40.00,0,-999,0,0.00
2013-8-29,67,53,44,-100,-100,-100,0,0,100,0.00,40.00,0,-999,0,0.01
2013-8-30,62,53,47,-100,-100,-100,0,0,100,0.00,40.00,0,-999,0,0.02
2013-8-31,62,50,46,-100,-100,-100,0,0,100,0.00,40.00,0,-999,0,0.02
2013-9-1,63,51,44,-100,-100,-100,0,0,100,0.00,40.00,0,-999,0,0.01
2013-9-2,65,54,44,-100,-100,-100,0,0,100,0.00,40.00,0,-999,0,0.01
2013-9-3,66,53,46,-100,-100,-100,0,0,100,0.00,40.00,0,-999,0,0.01
2013-9-4,65,55,46,-100,-100,-100,0,0,100,0.00,40.00,0,-999,0,0.00
2013-9-5,70,55,45,-100,-100,-100,0,0,100,0.00,40.00,0,-999,0,0.00
2013-9-6,70,55,42,-100,-100,-100,0,0,100,0.00,40.00,0,-999,0,0.00
2013-9-7,69,57,45,-100,-100,-100,0,0,100,0.00,40.00,0,-999,0,0.00
2013-9-8,65,54,42,-100,-100,-100,0,0,100,0.00,40.00,0,-999,0,0.01
2013-9-9,63,52,41,-100,-100,-100,0,0,100,0.00,40.00,0,-999,0,0.01
2013-9-10,51,48,47,-100,-100,-100,0,0,100,0.00,40.00,0,-999,0,0.03
2013-9-11,53,49,46,-100,-100,-100,0,0,100,0.00,40.00,0,-999,0,0.03
2013-9-12,54,49,46,-100,-100,-100,0,0,100,0.00,40.00,0,-999,0,0.02
2013-9-13,52,47,42,-100,-100,-100,0,0,100,0.00,40.00,0,-999,0,0.03
2013-9-14,51,44,40,-100,-100,-100,0,0,100,0.00,40.00,0,-999,0,0.01
2013-9-15,51,44,41,-100,-100,-100,0,0,100,0.00,40.00,0,-999,0,0.02
2013-9-16,57,44,36,-100,-100,-100,0,0,100,0.00,40.00,0,-999,0,0.01
2013-9-17,59,47,37,-100,-100,-100,0,0,100,0.00,40.00,0,-999,0,0.00
2013-9-18,43,41,40,-100,-100,-100,0,0,100,0.00,40.00,0,-999,0,0.00
2013-9-19,53,42,33,-100,-100,-100,0,0,100,0.00,40.00,0,-999,0,0.01
2013-9-20,61,45,31,-100,-100,-100,0,0,100,0.00,40.00,0,-999,0,0.00
2013-9-21,61,48,36,-100,-100,-100,0,0,100,0.00,40.00,0,-999,0,0.00
2013-9-22,51,44,36,-100,-100,-100,0,0,100,0.00,40.00,0,-999,0,0.01
2013-9-23,36,34,31,-100,-100,-100,0,0,100,0.00,40.00,0,-999,0,0.01
2013-9-24,58,42,32,-100,-100,-100,0,0,100,0.00,40.00,0,-999,0,0.00
2013-9-25,60,58,55,-100,-100,-100,0,0,100,0.00,40.00,0,-999,0,0.00
2013-9-26,58,49,38,-100,-100,-100,0,0,100,0.00,40.00,0,-999,0,0.00
2013-9-27,43,36,26,-100,-100,-100,0,0,100,0.00,40.00,0,-999,0,0.00
2013-10-2,58,46,34,-100,-100,-100,0,0,100,0.00,40.00,0,-999,0,0.00
2013-10-3,57,46,33,-100,-100,-100,0,0,100,0.00,40.00,0,-999,0,0.00
2013-10-4,38,27,19,-100,-100,-100,0,0,100,0.00,40.00,0,-999,0,0.01
2013-10-5,33,26,18,-100,-100,-100,0,0,100,0.00,40.00,0,-999,0,0.01
2013-10-6,48,36,27,-100,-100,-100,0,0,100,0.00,40.00,0,-999,0,0.00
2013-10-7,59,45,34,-100,-100,-100,0,0,100,0.00,40.00,0,-999,0,0.00
2013-10-8,57,42,34,-100,-100,-100,0,0,100,0.00,40.00,0,-999,0,0.00
2013-10-9,52,40,31,-100,-100,-100,0,0,100,0.00,40.00,0,-999,0,0.00
2013-10-10,40,36,31,-100,-100,-100,0,0,100,0.00,40.00,0,-999,0,0.00
2013-10-11,36,32,29,-100,-100,-100,0,0,100,0.00,40.00,0,-999,0,0.01
2013-10-12,46,32,23,-100,-100,-100,0,0,100,0.00,40.00,0,-999,0,0.00
2013-10-13,50,38,25,-100,-100,-100,0,0,100,0.00,40.00,0,-999,0,0.00
2013-10-21,31,30,29,-100,-100,-100,0,0,100,0.00,40.00,0,-999,0,0.00
2013-10-22,46,37,30,-100,-100,-100,0,0,100,0.00,40.00,0,-999,0,0.00
2013-10-23,31,31,31,-100,-100,-100,0,0,100,0.00,40.00,0,-999,0,0.00
2013-10-24,51,41,35,-100,-100,-100,0,0,100,0.00,40.00,0,-999,0,0.00
2013-10-25,40,35,29,-100,-100,-100,0,0,100,0.00,40.00,0,-999,0,0.00
2013-10-26,39,34,27,-100,-100,-100,0,0,100,0.00,40.00,0,-999,0,0.00
2013-10-27,42,36,30,-100,-100,-100,0,0,100,0.00,40.00,0,-999,0,0.00
2013-11-12,46,33,27,-100,-100,-100,0,0,100,0.00,40.00,0,-999,0,0.00
2013-11-13,41,37,31,-100,-100,-100,0,0,100,0.00,40.00,0,-999,0,0.00
2013-11-14,33,25,18,-100,-100,-100,0,0,100,0.00,40.00,0,-999,0,0.00
2013-11-15,35,34,33,-100,-100,-100,0,0,100,0.00,40.00,0,-999,0,0.00
2013-11-16,23,23,22,-100,-100,-100,0,0,100,0.00,40.00,0,-999,0,0.00
2013-11-17,27,27,27,-100,-100,-100,0,0,100,0.00,40.00,0,-999,0,0.00
2013-11-18,42,30,23,-100,-100,-100,0,0,100,0.00,40.00,0,-999,0,0.00
2013-11-19,38,31,20,-100,-100,-100,0,0,100,0.00,40.00,0,-999,0,0.00
2013-11-20,30,28,27,-100,-100,-100,0,0,100,0.00,40.00,0,-999,0,0.00
2013-11-21,28,27,24,-100,-100,-100,0,0,100,0.00,40.00,0,-999,0,0.02
2013-11-22,19,16,14,-100,-100,-100,0,0,100,0.00,40.00,0,-999,0,0.00
2013-11-23,23,20,16,-100,-100,-100,0,0,100,0.00,40.00,0,-999,0,0.01
2013-11-24,31,26,21,-100,-100,-100,0,0,100,0.00,40.00,0,-999,0,0.01
2013-11-25,25,22,20,-100,-100,-100,0,0,100,0.00,40.00,0,-999,0,0.00
2013-11-26,27,24,21,-100,-100,-100,0,0,100,0.00,40.00,0,-999,0,0.00
2013-11-27,36,28,21,-100,-100,-100,0,0,100,0.00,40.00,0,-999,0,0.00
2013-11-28,38,26,16,-100,-100,-100,0,0,100,0.00,40.00,0,-999,0,0.00
2013-11-29,34,30,27,-100,-100,-100,0,0,100,0.00,40.00,0,-999,0,0.00
2013-11-30,33,29,26,-100,-100,-100,0,0,100,0.00,40.00,0,-999,0,0.00
2013-12-1,31,28,24,-100,-100,-100,0,0,100,0.00,40.00,0,-999,0,0.00
2013-12-2,33,30,28,-100,-100,-100,0,0,100,0.00,40.00,0,-999,0,0.00
2013-12-3,28,26,24,-100,-100,-100,0,0,100,0.00,40.00,0,-999,0,0.00
2013-12-4,24,11,1,-100,-100,-100,0,0,100,0.00,40.00,0,-999,0,0.03
2013-12-5,10,1,-11,-100,-100,-100,0,0,100,0.00,40.00,0,-999,0,0.01
2013-12-6,5,-4,-16,-100,-100,-100,0,0,100,0.00,40.00,0,-999,0,0.00
2013-12-7,9,4,-2,-100,-100,-100,0,0,100,0.00,40.00,0,-999,0,0.00
2013-12-8,7,4,-1,-100,-100,-100,0,0,100,0.00,40.00,0,-999,0,0.00
2013-12-9,7,0,-6,-100,-100,-100,0,0,100,0.00,40.00,0,-999,0,0.00
2013-12-10,21,17,13,-100,-100,-100,0,0,100,0.00,40.00,0,-999,0,0.00
2013-12-11,27,22,14,-100,-100,-100,0,0,100,0.00,40.00,0,-999,0,0.00
2013-12-12,28,23,20,-100,-100,-100,0,0,100,0.00,40.00,0,-999,0,0.00
2013-12-13,30,25,15,-100,-100,-100,0,0,100,0.00,40.00,0,-999,0,0.00
2013-12-14,17,15,13,-100,-100,-100,0,0,100,0.00,40.00,0,-999,0,0.00
2013-12-15,29,26,23,-100,-100,-100,0,0,100,0.00,40.00,0,-999,0,0.00
2013-12-16,36,32,30,-100,-100,-100,0,0,100,0.00,40.00,0,-999,0,0.00
2013-12-17,33,31,27,-100,-100,-100,0,0,100,0.00,40.00,0,-999,0,0.00
2013-12-18,38,36,34,-100,-100,-100,0,0,100,0.00,40.00,0,-999,0,0.00
2013-12-19,34,29,19,-100,-100,-100,0,0,100,0.00,40.00,0,-999,0,0.00
2013-12-20,24,20,15,-100,-100,-100,0,0,100,0.00,40.00,0,-999,0,0.00
2013-12-21,19,15,10,-100,-100,-100,0,0,100,0.00,40.00,0,-999,0,0.00
2013-12-22,16,13,8,-100,-100,-100,0,0,100,0.00,40.00,0,-999,0,0.00
2013-12-23,23,18,14,-100,-100,-100,0,0,100,0.00,40.00,0,-999,0,0.00
2013-12-24,26,22,12,-100,-100,-100,0,0,100,0.00,40.00,0,-999,0,0.01
2013-12-25,19,14,11,-100,-100,-100,0,0,100,0.00,40.00,0,-999,0,0.00
2013-12-26,30,24,17,-100,-100,-100,0,0,100,0.00,40.00,0,-999,0,0.00
2013-12-27,30,26,21,-100,-100,-100,0,0,100,0.00,40.00,0,-999,0,0.00
2013-12-28,29,29,29,-100,-100,-100,0,0,100,0.00,40.00,0,-999,0,0.00
2013-12-29,15,14,13,-100,-100,-100,0,0,100,0.00,40.00,0,-999,0,0.00
2013-12-30,20,20,20,-100,-100,-100,0,0,100,0.00,40.00,0,-999,0,0.00
2013-12-31,27,26,25,-100,-100,-100,0,0,100,0.00,40.00,0,-999,0,0.00
2014-1-1,24,18,13,-100,-100,-100,0,0,100,0.00,40.00,0,-999,0,0.02
2014-1-2,30,23,13,-100,-100,-100,0,0,100,0.00,40.00,0,-999,0,0.00